createdAt,value
2018-08-25T04:04:24.058Z,4.30
2018-08-25T04:06:51.980Z,4.70
2018-08-25T04:09:19.893Z,4.20
2018-08-25T04:11:47.911Z,4.67
2018-08-25T04:14:15.815Z,4.23
2018-08-25T04:16:43.753Z,3.40
2018-08-25T04:19:17.738Z,4.33
2018-08-25T04:21:45.598Z,3.70
2018-08-25T04:24:14.382Z,4.80
2018-08-25T04:26:43.132Z,4.23
2018-08-25T04:29:11.879Z,4.70
2018-08-25T04:31:39.601Z,4.23
2018-08-25T04:34:08.390Z,3.80
2018-08-25T04:36:36.464Z,3.93
2018-08-25T04:39:05.450Z,4.53
2018-08-25T04:41:33.326Z,3.60
2018-08-25T04:44:01.175Z,3.87
2018-08-25T04:46:28.993Z,4.43
2018-08-25T04:48:56.749Z,4.03
2018-08-25T04:51:24.689Z,4.23
2018-08-25T04:53:52.774Z,4.13
2018-08-25T04:56:20.719Z,3.93
2018-08-25T04:58:49.555Z,4.33
2018-08-25T05:01:17.558Z,3.73
2018-08-25T05:03:46.239Z,3.73
2018-08-25T05:06:14.063Z,3.87
2018-08-25T05:08:43.026Z,3.60
2018-08-25T05:11:10.992Z,4.47
2018-08-25T05:13:38.858Z,3.90
2018-08-25T05:16:07.239Z,3.70
2018-08-25T05:18:36.111Z,3.70
2018-08-25T05:21:04.465Z,4.10
2018-08-25T05:23:32.245Z,3.13
2018-08-25T05:26:00.044Z,3.70
2018-08-25T05:28:28.660Z,3.27
2018-08-25T05:30:57.234Z,3.40
2018-08-25T05:33:25.511Z,4.00
2018-08-25T05:35:53.481Z,3.50
2018-08-25T05:38:21.474Z,3.47
2018-08-25T05:40:50.244Z,2.90
2018-08-25T05:43:17.868Z,3.63
2018-08-25T05:45:45.688Z,4.13
2018-08-25T05:48:13.692Z,3.70
2018-08-25T05:50:42.298Z,3.93
2018-08-25T05:53:11.315Z,3.30
2018-08-25T05:55:39.174Z,4.37
2018-08-25T05:58:07.149Z,4.17
2018-08-25T06:00:35.050Z,3.63
2018-08-25T06:03:02.930Z,4.17
2018-08-25T06:05:30.965Z,3.47
2018-08-25T06:07:59.020Z,4.63
2018-08-25T06:10:26.890Z,4.00
2018-08-25T06:12:54.915Z,4.23
2018-08-25T06:15:22.810Z,4.60
2018-08-25T06:17:50.649Z,4.17
2018-08-25T06:20:18.455Z,3.40
2018-08-25T06:22:46.203Z,4.10
2018-08-25T06:25:14.068Z,3.33
2018-08-25T06:27:41.832Z,3.23
2018-08-25T06:30:10.188Z,2.70
2018-08-25T06:32:38.002Z,4.30
2018-08-25T06:35:05.974Z,3.00
2018-08-25T06:37:33.708Z,3.43
2018-08-25T06:40:01.789Z,3.10
2018-08-25T06:42:29.623Z,3.07
2018-08-25T06:44:57.396Z,3.70
2018-08-25T06:47:25.336Z,3.43
2018-08-25T06:49:53.255Z,3.63
2018-08-25T06:52:21.240Z,3.27
2018-08-25T06:54:49.295Z,4.47
2018-08-25T06:57:17.265Z,3.00
2018-08-25T06:59:45.147Z,3.00
2018-08-25T07:02:13.242Z,3.33
2018-08-25T07:04:41.210Z,3.00
2018-08-25T07:07:09.175Z,2.50
2018-08-25T07:09:37.170Z,3.73
2018-08-25T07:12:05.030Z,3.50
2018-08-25T07:14:33.395Z,3.10
2018-08-25T07:17:01.873Z,3.70
2018-08-25T07:19:30.108Z,3.50
2018-08-25T07:21:58.562Z,4.40
2018-08-25T07:24:26.458Z,3.73
2018-08-25T07:26:54.381Z,3.77
2018-08-25T07:29:21.992Z,3.60
2018-08-25T07:31:49.839Z,3.40
2018-08-25T07:34:17.792Z,3.63
2018-08-25T07:36:45.645Z,3.13
2018-08-25T07:39:13.779Z,3.37
2018-08-25T07:41:41.718Z,5.13
2018-08-25T07:44:09.340Z,3.80
2018-08-25T07:46:37.948Z,3.40
2018-08-25T07:49:06.434Z,3.57
2018-08-25T07:51:34.861Z,4.30
2018-08-25T07:54:02.766Z,2.70
2018-08-25T07:56:31.405Z,3.10
2018-08-25T07:58:59.402Z,3.53
2018-08-25T08:01:27.369Z,2.67
2018-08-25T08:03:55.383Z,2.63
2018-08-25T08:06:23.912Z,3.90
2018-08-25T08:08:52.739Z,3.00
2018-08-25T08:11:20.525Z,4.20
2018-08-25T08:13:48.628Z,3.70
2018-08-25T08:16:16.714Z,3.30
2018-08-25T08:18:45.284Z,2.70
2018-08-25T08:21:13.155Z,2.50
2018-08-25T08:23:41.034Z,2.83
2018-08-25T08:26:08.911Z,2.80
2018-08-25T08:28:37.445Z,3.20
2018-08-25T08:31:06.335Z,3.60
2018-08-25T08:33:34.462Z,2.90
2018-08-25T08:36:03.355Z,2.73
2018-08-25T08:38:32.990Z,2.30
2018-08-25T08:41:00.768Z,2.80
2018-08-25T08:43:28.667Z,3.50
2018-08-25T08:45:56.546Z,2.93
2018-08-25T08:48:25.013Z,2.70
2018-08-25T08:50:52.878Z,2.40
2018-08-25T08:53:20.646Z,3.30
2018-08-25T08:55:48.812Z,3.50
2018-08-25T08:58:17.076Z,4.20
2018-08-25T09:00:44.981Z,2.57
2018-08-25T09:03:12.696Z,3.03
2018-08-25T09:05:40.523Z,3.07
2018-08-25T09:08:08.541Z,3.20
2018-08-25T09:10:36.671Z,3.27
2018-08-25T09:13:04.816Z,2.73
2018-08-25T09:15:32.641Z,2.87
2018-08-25T09:18:00.740Z,2.97
2018-08-25T09:20:28.715Z,3.10
2018-08-25T09:22:56.493Z,5.10
2018-08-25T09:25:24.342Z,3.10
2018-08-25T09:27:53.695Z,3.60
2018-08-25T09:30:22.355Z,2.90
2018-08-25T09:32:50.720Z,2.63
2018-08-25T09:35:18.564Z,3.00
2018-08-25T09:37:47.249Z,3.10
2018-08-25T09:40:15.821Z,3.20
2018-08-25T09:42:43.806Z,3.10
2018-08-25T09:45:11.734Z,3.33
2018-08-25T09:47:40.304Z,3.50
2018-08-25T09:50:08.645Z,3.50
2018-08-25T09:52:36.960Z,3.53
2018-08-25T09:55:04.694Z,3.20
2018-08-25T09:57:33.198Z,3.60
2018-08-25T10:00:01.174Z,3.63
2018-08-25T10:02:29.794Z,3.53
2018-08-25T10:04:57.741Z,3.37
2018-08-25T10:07:25.644Z,3.00
2018-08-25T10:09:54.323Z,3.10
2018-08-25T10:12:22.178Z,3.20
2018-08-25T10:14:50.010Z,3.10
2018-08-25T10:17:18.569Z,3.00
2018-08-25T10:19:46.478Z,3.40
2018-08-25T10:22:14.486Z,3.30
2018-08-25T10:24:42.427Z,3.17
2018-08-25T10:27:10.358Z,9.53
2018-08-25T10:29:38.390Z,3.23
2018-08-25T10:32:06.492Z,3.43
2018-08-25T10:34:34.223Z,3.43
2018-08-25T10:37:02.071Z,3.63
2018-08-25T10:39:29.831Z,3.07
2018-08-25T10:41:58.350Z,3.27
2018-08-25T10:44:26.243Z,3.50
2018-08-25T10:46:54.831Z,2.53
2018-08-25T10:49:22.723Z,2.30
2018-08-25T10:51:50.752Z,2.80
2018-08-25T10:54:24.392Z,3.17
2018-08-25T10:56:52.266Z,2.60
2018-08-25T10:59:20.154Z,2.80
2018-08-25T11:01:48.484Z,3.00
2018-08-25T11:04:16.522Z,2.47
2018-08-25T11:06:44.483Z,3.70
2018-08-25T11:09:13.818Z,3.27
2018-08-25T11:11:41.607Z,4.70
2018-08-25T11:14:10.544Z,4.20
2018-08-25T11:16:39.352Z,4.20
2018-08-25T11:19:08.298Z,4.23
2018-08-25T11:21:36.419Z,3.80
2018-08-25T11:24:05.487Z,3.80
2018-08-25T11:26:34.098Z,4.10
2018-08-25T11:29:02.111Z,4.10
2018-08-25T11:31:29.957Z,4.50
2018-08-25T11:33:58.424Z,4.30
2018-08-25T11:36:26.276Z,4.90
2018-08-25T11:38:53.861Z,4.80
2018-08-25T11:41:22.382Z,5.10
2018-08-25T11:43:50.260Z,4.60
2018-08-25T11:46:18.880Z,4.50
2018-08-25T11:48:46.760Z,5.07
2018-08-25T11:51:14.717Z,4.37
2018-08-25T11:53:42.593Z,4.70
2018-08-25T11:56:10.916Z,4.80
2018-08-25T11:58:38.949Z,4.93
2018-08-25T12:01:07.014Z,4.60
2018-08-25T12:03:34.877Z,4.87
2018-08-25T12:06:02.748Z,4.87
2018-08-25T12:08:30.627Z,4.83
2018-08-25T12:10:59.174Z,5.00
2018-08-25T12:13:28.489Z,5.70
2018-08-25T12:15:56.976Z,4.90
2018-08-25T12:18:24.848Z,5.03
2018-08-25T12:20:53.333Z,5.90
2018-08-25T12:23:22.005Z,5.00
2018-08-25T12:25:50.762Z,5.40
2018-08-25T12:28:18.764Z,7.07
2018-08-25T12:30:48.966Z,6.53
2018-08-25T12:33:16.827Z,7.37
2018-08-25T12:35:44.787Z,6.47
2018-08-25T12:38:14.399Z,6.23
2018-08-25T12:40:42.093Z,7.20
2018-08-25T12:43:09.921Z,6.20
2018-08-25T12:45:37.898Z,6.27
2018-08-25T12:48:06.163Z,5.87
2018-08-25T12:50:34.012Z,5.63
2018-08-25T12:53:01.771Z,6.80
2018-08-25T12:55:30.726Z,6.33
2018-08-25T12:57:58.644Z,5.93
2018-08-25T13:00:27.488Z,4.43
2018-08-25T13:02:55.461Z,5.00
2018-08-25T13:05:24.165Z,5.50
2018-08-25T13:07:52.715Z,5.23
2018-08-25T13:10:22.344Z,5.10
2018-08-25T13:12:50.226Z,5.10
2018-08-25T13:15:18.043Z,4.83
2018-08-25T13:17:45.809Z,5.33
2018-08-25T13:20:14.171Z,5.33
2018-08-25T13:22:41.923Z,5.30
2018-08-25T13:25:09.786Z,6.17
2018-08-25T13:27:37.582Z,5.80
2018-08-25T13:30:06.408Z,6.30
2018-08-25T13:32:34.211Z,6.43
2018-08-25T13:35:02.103Z,5.97
2018-08-25T13:37:29.969Z,6.10
2018-08-25T13:39:57.925Z,5.97
2018-08-25T13:42:25.823Z,6.60
2018-08-25T13:44:54.420Z,9.37
2018-08-25T13:47:22.448Z,9.10
2018-08-25T13:49:50.577Z,5.97
2018-08-25T13:52:18.403Z,4.33
2018-08-25T13:54:46.327Z,4.50
2018-08-25T13:57:15.632Z,4.27
2018-08-25T13:59:43.416Z,4.60
2018-08-25T14:02:11.580Z,5.30
2018-08-25T14:04:39.712Z,5.13
2018-08-25T14:07:07.561Z,3.50
2018-08-25T14:09:35.477Z,5.40
2018-08-25T14:12:03.832Z,4.33
2018-08-25T14:14:31.679Z,5.90
2018-08-25T14:16:59.531Z,5.53
2018-08-25T14:19:27.206Z,4.77
2018-08-25T14:21:55.649Z,4.27
2018-08-25T14:24:24.509Z,4.00
2018-08-25T14:26:53.386Z,3.87
2018-08-25T14:29:21.253Z,3.93
2018-08-25T14:31:48.918Z,3.30
2018-08-25T14:34:17.374Z,3.70
2018-08-25T14:36:45.391Z,3.57
2018-08-25T14:39:13.886Z,3.40
2018-08-25T14:41:41.833Z,2.47
2018-08-25T14:44:10.813Z,2.80
2018-08-25T14:46:40.041Z,2.90
2018-08-25T14:49:08.191Z,2.90
2018-08-25T14:51:36.263Z,2.90
2018-08-25T14:54:04.229Z,3.40
2018-08-25T14:56:32.784Z,3.30
2018-08-25T14:59:03.687Z,2.80
2018-08-25T15:01:31.690Z,3.33
2018-08-25T15:03:59.529Z,3.50
2018-08-25T15:06:27.689Z,3.63
2018-08-25T15:08:55.687Z,4.20
2018-08-25T15:11:23.549Z,3.87
2018-08-25T15:13:54.092Z,4.27
2018-08-25T15:16:23.303Z,4.00
2018-08-25T15:18:51.176Z,5.03
2018-08-25T15:21:21.009Z,4.60
2018-08-25T15:23:48.698Z,3.97
2018-08-25T15:26:17.253Z,4.20
2018-08-25T15:28:46.766Z,4.90
2018-08-25T15:31:16.493Z,5.83
2018-08-25T15:33:44.871Z,5.60
2018-08-25T15:36:13.160Z,5.57
2018-08-25T15:38:40.787Z,7.10
2018-08-25T15:41:08.351Z,5.73
2018-08-25T15:43:36.980Z,6.30
2018-08-25T15:46:04.910Z,7.60
2018-08-25T15:48:34.078Z,7.53
2018-08-25T15:51:02.862Z,8.13
2018-08-25T15:53:31.556Z,5.57
2018-08-25T15:56:02.327Z,6.90
2018-08-25T15:58:31.174Z,6.70
2018-08-25T16:00:59.187Z,6.57
2018-08-25T16:03:28.476Z,5.53
2018-08-25T16:05:57.157Z,4.07
2018-08-25T16:08:25.872Z,3.07
2018-08-25T16:10:53.862Z,3.20
2018-08-25T16:13:21.706Z,3.30
2018-08-25T16:15:49.307Z,2.60
2018-08-25T16:18:17.235Z,2.43
2018-08-25T16:20:45.265Z,3.07
2018-08-25T16:23:13.671Z,2.80
2018-08-25T16:25:41.611Z,2.70
2018-08-25T16:28:10.570Z,2.63
2018-08-25T16:30:38.982Z,3.37
2018-08-25T16:33:09.659Z,2.70
2018-08-25T16:35:39.663Z,2.83
2018-08-25T16:38:08.364Z,2.90
2018-08-25T16:40:36.137Z,2.90
2018-08-25T16:43:04.564Z,2.60
2018-08-25T16:45:32.653Z,2.30
2018-08-25T16:48:01.159Z,2.57
2018-08-25T16:50:28.939Z,2.20
2018-08-25T16:52:57.121Z,2.43
2018-08-25T16:55:25.643Z,1.97
2018-08-25T16:57:56.304Z,1.90
2018-08-25T17:00:25.512Z,2.17
2018-08-25T17:02:54.105Z,1.80
2018-08-25T17:05:22.991Z,1.50
2018-08-25T17:07:50.858Z,1.00
2018-08-25T17:10:19.418Z,1.20
2018-08-25T17:12:47.454Z,1.00
2018-08-25T17:15:16.321Z,1.80
2018-08-25T17:17:44.152Z,1.10
2018-08-25T17:20:12.987Z,0.93
2018-08-25T17:22:41.955Z,1.30
2018-08-25T17:25:09.795Z,1.17
2018-08-25T17:27:37.829Z,1.10
2018-08-25T17:30:05.812Z,1.00
2018-08-25T17:32:33.818Z,1.20
2018-08-25T17:35:01.699Z,0.90
2018-08-25T17:37:30.661Z,1.10
2018-08-25T17:39:58.550Z,0.93
2018-08-25T17:42:26.343Z,1.00
2018-08-25T17:44:55.455Z,1.10
2018-08-25T17:47:23.276Z,1.03
2018-08-25T17:49:51.265Z,0.97
2018-08-25T17:52:20.110Z,1.27
2018-08-25T17:54:48.726Z,1.20
2018-08-25T17:57:16.655Z,1.17
2018-08-25T17:59:45.225Z,1.80
2018-08-25T18:02:13.149Z,3.17
2018-08-25T18:04:41.118Z,1.47
2018-08-25T18:07:09.541Z,1.50
2018-08-25T18:09:37.491Z,1.40
2018-08-25T18:12:05.286Z,2.10
2018-08-25T18:14:33.107Z,2.10
2018-08-25T18:17:01.714Z,1.63
2018-08-25T18:19:30.315Z,1.97
2018-08-25T18:21:58.995Z,1.40
2018-08-25T18:24:26.771Z,1.20
2018-08-25T18:26:55.155Z,1.50
2018-08-25T18:29:23.086Z,1.80
2018-08-25T18:31:51.036Z,1.70
2018-08-25T18:34:18.937Z,1.53
2018-08-25T18:36:46.938Z,1.63
2018-08-25T18:39:15.057Z,1.83
2018-08-25T18:41:44.371Z,2.10
2018-08-25T18:44:12.224Z,2.33
2018-08-25T18:46:40.071Z,1.57
2018-08-25T18:49:08.966Z,1.33
2018-08-25T18:51:37.552Z,1.30
2018-08-25T18:54:05.337Z,1.40
2018-08-25T18:56:35.095Z,1.30
2018-08-25T18:59:03.129Z,1.53
2018-08-25T19:01:30.961Z,1.23
2018-08-25T19:03:58.834Z,1.47
2018-08-25T19:06:27.798Z,1.20
2018-08-25T19:08:56.547Z,1.30
2018-08-25T19:11:24.535Z,1.30
2018-08-25T19:13:52.455Z,1.93
2018-08-25T19:16:20.802Z,1.00
2018-08-25T19:18:49.391Z,2.00
2018-08-25T19:21:18.235Z,1.73
2018-08-25T19:23:46.632Z,1.40
2018-08-25T19:26:14.857Z,1.70
2018-08-25T19:28:42.620Z,1.37
2018-08-25T19:31:11.367Z,1.60
2018-08-25T19:33:41.115Z,1.30
2018-08-25T19:36:09.174Z,1.60
2018-08-25T19:38:37.055Z,1.40
2018-08-25T19:41:05.161Z,1.50
2018-08-25T19:43:33.035Z,1.70
2018-08-25T19:46:00.898Z,1.80
2018-08-25T19:48:29.419Z,1.70
2018-08-25T19:50:59.048Z,1.60
2018-08-25T19:53:27.541Z,1.70
2018-08-25T19:55:56.807Z,1.77
2018-08-25T19:58:24.668Z,1.50
2018-08-25T20:00:52.576Z,1.30
2018-08-25T20:03:21.190Z,1.40
2018-08-25T20:05:49.073Z,1.70
2018-08-25T20:08:18.678Z,1.73
2018-08-25T20:10:46.628Z,1.23
2018-08-25T20:13:14.592Z,1.60
2018-08-25T20:15:43.183Z,1.40
2018-08-25T20:18:13.197Z,2.10
2018-08-25T20:20:41.444Z,1.50
2018-08-25T20:23:12.742Z,1.83
2018-08-25T20:25:42.422Z,1.90
2018-08-25T20:28:11.362Z,1.60
2018-08-25T20:30:39.568Z,2.30
2018-08-25T20:33:07.767Z,1.60
2018-08-25T20:35:36.580Z,1.80
2018-08-25T20:38:04.451Z,1.87
2018-08-25T20:40:32.814Z,1.87
2018-08-25T20:43:00.579Z,1.90
2018-08-25T20:45:29.050Z,1.80
2018-08-25T20:47:57.015Z,1.30
2018-08-25T20:50:25.242Z,2.70
2018-08-25T20:53:11.284Z,2.10
2018-08-25T20:55:44.209Z,1.97
2018-08-25T20:58:12.866Z,1.80
2018-08-25T21:00:56.448Z,2.10
2018-08-25T21:03:47.170Z,1.93
2018-08-25T21:06:15.078Z,1.80
2018-08-25T21:08:43.317Z,2.30
2018-08-25T21:11:18.143Z,1.90
2018-08-25T21:13:57.255Z,1.50
2018-08-25T21:16:25.259Z,1.40
2018-08-25T21:18:53.740Z,1.70
2018-08-25T21:21:22.829Z,1.80
2018-08-25T21:23:50.580Z,1.53
2018-08-25T21:26:20.963Z,1.43
2018-08-25T21:28:48.716Z,1.53
2018-08-25T21:31:19.722Z,1.50
2018-08-25T21:33:47.411Z,1.70
2018-08-25T21:36:16.372Z,1.67
2018-08-25T21:38:45.354Z,1.93
2018-08-25T21:41:15.342Z,1.57
2018-08-25T21:43:43.816Z,1.70
2018-08-25T21:46:20.748Z,1.50
2018-08-25T21:48:49.033Z,1.80
2018-08-25T21:51:16.949Z,1.53
2018-08-25T21:53:54.173Z,1.43
2018-08-25T21:56:24.546Z,1.87
2018-08-25T21:58:52.370Z,1.50
2018-08-25T22:05:28.390Z,1.37
2018-08-25T22:07:57.167Z,1.77
2018-08-25T22:13:26.777Z,1.43
2018-08-25T22:16:13.455Z,1.60
2018-08-25T22:18:49.626Z,2.03
2018-08-25T22:21:22.925Z,1.70
2018-08-25T22:23:51.624Z,2.20
2018-08-25T22:26:33.594Z,2.27
